createdAt,value
2023-02-16T00:01:18.121Z,2.23
2023-02-16T00:03:47.032Z,2.46
2023-02-16T00:06:16.360Z,2.20
2023-02-16T00:08:47.837Z,2.35
2023-02-16T00:11:38.124Z,2.53
2023-02-16T00:14:09.989Z,2.46
2023-02-16T00:16:39.175Z,2.34
2023-02-16T00:19:18.932Z,2.27
2023-02-16T00:21:48.194Z,2.31
2023-02-16T00:24:17.168Z,2.43
2023-02-16T00:26:46.986Z,2.09
2023-02-16T00:29:21.645Z,2.27
2023-02-16T00:31:50.929Z,1.95
2023-02-16T00:34:31.759Z,2.04
2023-02-16T00:37:04.748Z,2.02
2023-02-16T00:39:33.842Z,2.09
2023-02-16T00:42:04.817Z,2.21
2023-02-16T00:44:40.736Z,2.14
2023-02-16T00:47:18.932Z,2.45
2023-02-16T00:49:48.291Z,2.11
2023-02-16T00:52:30.924Z,1.80
2023-02-16T00:55:02.003Z,1.74
2023-02-16T00:57:35.579Z,1.55
2023-02-16T01:00:14.154Z,1.59
2023-02-16T01:02:43.269Z,1.12
2023-02-16T01:05:12.737Z,1.02
2023-02-16T01:07:59.427Z,0.86
2023-02-16T01:10:47.962Z,1.34
2023-02-16T01:13:17.811Z,1.06
2023-02-16T01:15:48.118Z,1.02
2023-02-16T01:18:19.397Z,0.97
2023-02-16T01:20:48.945Z,0.97
2023-02-16T01:23:17.755Z,0.94
2023-02-16T01:25:46.625Z,1.15
2023-02-16T01:28:21.605Z,1.33
2023-02-16T01:30:53.206Z,1.43
2023-02-16T01:33:22.552Z,1.42
2023-02-16T01:35:52.457Z,1.56
2023-02-16T01:38:24.152Z,1.80
2023-02-16T01:41:01.465Z,1.61
2023-02-16T01:43:39.319Z,1.40
2023-02-16T01:46:15.960Z,1.55
2023-02-16T01:48:45.091Z,1.53
2023-02-16T01:51:20.588Z,1.67
2023-02-16T01:53:53.501Z,1.79
2023-02-16T01:56:33.648Z,1.62
2023-02-16T01:59:09.852Z,1.46
2023-02-16T02:01:49.407Z,1.61
2023-02-16T02:04:42.453Z,1.43
2023-02-16T02:07:19.104Z,1.77
2023-02-16T02:09:56.670Z,1.47
2023-02-16T02:12:33.598Z,1.63
2023-02-16T02:15:02.683Z,1.53
2023-02-16T02:17:33.067Z,1.38
2023-02-16T02:20:10.291Z,1.41
2023-02-16T02:23:34.067Z,1.00
2023-02-16T02:26:37.079Z,0.84
2023-02-16T02:29:32.478Z,0.75
2023-02-16T02:32:10.297Z,0.73
2023-02-16T02:34:56.006Z,0.78
2023-02-16T02:37:35.814Z,0.85
2023-02-16T02:40:15.611Z,0.78
2023-02-16T02:42:51.353Z,0.96
2023-02-16T02:45:26.252Z,1.12
2023-02-16T02:47:55.527Z,1.19
2023-02-16T02:51:03.263Z,1.01
2023-02-16T02:53:33.128Z,1.13
2023-02-16T02:56:21.806Z,1.12
2023-02-16T02:59:12.705Z,0.90
2023-02-16T03:01:45.374Z,1.02
2023-02-16T03:04:18.186Z,1.10
2023-02-16T03:06:51.265Z,1.10
2023-02-16T03:09:20.889Z,0.78
2023-02-16T03:12:09.631Z,0.64
2023-02-16T03:14:43.418Z,0.78
2023-02-16T03:17:34.018Z,0.93
2023-02-16T03:20:23.164Z,1.05
2023-02-16T03:23:10.317Z,0.98
2023-02-16T03:25:58.134Z,0.96
2023-02-16T03:28:47.978Z,1.02
2023-02-16T03:31:21.752Z,0.95
2023-02-16T03:33:54.999Z,0.91
2023-02-16T03:36:25.082Z,0.66
2023-02-16T03:38:55.289Z,0.92
2023-02-16T03:41:24.400Z,0.78
2023-02-16T03:43:53.273Z,0.80
2023-02-16T03:46:22.113Z,0.92
2023-02-16T03:48:52.331Z,0.90
2023-02-16T03:51:21.242Z,0.60
2023-02-16T03:53:50.243Z,0.76
2023-02-16T03:56:19.214Z,0.78
2023-02-16T03:58:48.054Z,0.70
2023-02-16T04:01:16.877Z,0.96
2023-02-16T04:03:45.885Z,1.17
2023-02-16T04:06:16.147Z,0.81
2023-02-16T04:08:45.009Z,1.14
2023-02-16T04:11:31.018Z,1.10
2023-02-16T04:13:59.877Z,0.86
2023-02-16T04:16:28.734Z,0.93
2023-02-16T04:18:57.539Z,1.05
2023-02-16T04:21:27.827Z,0.93
2023-02-16T04:23:56.620Z,0.36
2023-02-16T04:26:25.508Z,0.07
2023-02-16T04:28:54.392Z,0.06
2023-02-16T04:31:23.299Z,0.23
2023-02-16T04:33:52.250Z,0.24
2023-02-16T04:36:21.897Z,0.24
2023-02-16T04:38:52.059Z,-0.27
2023-02-16T04:41:20.876Z,-0.52
2023-02-16T04:43:49.745Z,-0.47
2023-02-16T04:46:19.270Z,-0.64
2023-02-16T04:48:48.189Z,-0.75
2023-02-16T04:51:16.943Z,-0.60
2023-02-16T04:53:45.795Z,-0.33
2023-02-16T04:56:16.099Z,-0.28
2023-02-16T04:58:44.980Z,0.15
2023-02-16T05:01:20.554Z,0.10
2023-02-16T05:03:49.808Z,0.11
2023-02-16T05:06:19.251Z,0.04
2023-02-16T05:08:48.712Z,-0.12
2023-02-16T05:11:36.556Z,-0.16
2023-02-16T05:14:22.889Z,0.08
2023-02-16T05:16:52.396Z,0.21
2023-02-16T05:19:21.240Z,0.39
2023-02-16T05:21:49.994Z,0.51
2023-02-16T05:24:18.781Z,0.59
2023-02-16T05:26:48.929Z,0.64
2023-02-16T05:29:17.763Z,0.63
2023-02-16T05:31:46.951Z,0.49
2023-02-16T05:34:15.931Z,0.46
2023-02-16T05:36:44.721Z,0.39
2023-02-16T05:39:13.546Z,0.44
2023-02-16T05:41:42.320Z,0.30
2023-02-16T05:44:13.222Z,0.47
2023-02-16T05:46:42.962Z,0.77
2023-02-16T05:49:11.893Z,0.74
2023-02-16T05:51:41.140Z,0.98
2023-02-16T05:54:17.101Z,1.22
2023-02-16T05:56:47.165Z,1.42
2023-02-16T05:59:18.412Z,1.43
2023-02-16T06:01:50.899Z,1.64
2023-02-16T06:04:21.656Z,1.61
2023-02-16T06:06:51.086Z,1.60
2023-02-16T06:09:19.954Z,1.71
2023-02-16T06:11:48.755Z,2.09
2023-02-16T06:14:21.717Z,2.23
2023-02-16T06:16:52.551Z,2.49
2023-02-16T06:19:21.974Z,2.43
2023-02-16T06:21:50.787Z,2.53
2023-02-16T06:24:19.642Z,2.50
2023-02-16T06:26:48.491Z,2.86
2023-02-16T06:29:18.758Z,3.36
2023-02-16T06:31:47.783Z,3.73
2023-02-16T06:34:16.748Z,3.96
2023-02-16T06:36:45.547Z,4.07
2023-02-16T06:39:14.370Z,4.18
2023-02-16T06:41:43.240Z,3.01
2023-02-16T06:44:14.025Z,2.22
2023-02-16T06:46:46.353Z,1.57
2023-02-16T06:49:16.881Z,1.94
2023-02-16T06:51:46.120Z,2.12
2023-02-16T06:54:15.367Z,2.43
2023-02-16T06:56:44.193Z,2.94
2023-02-16T06:59:13.497Z,3.06
2023-02-16T07:01:44.260Z,3.62
2023-02-16T07:04:15.470Z,3.93
2023-02-16T07:06:44.282Z,4.15
2023-02-16T07:09:13.201Z,4.75
2023-02-16T07:11:42.246Z,4.92
2023-02-16T07:14:11.148Z,3.83
2023-02-16T07:16:40.233Z,3.94
2023-02-16T07:19:09.226Z,4.09
2023-02-16T07:21:39.534Z,3.32
2023-02-16T07:24:08.806Z,4.00
2023-02-16T07:26:38.761Z,4.56
2023-02-16T07:29:07.608Z,3.36
2023-02-16T07:31:36.526Z,4.11
2023-02-16T07:34:05.398Z,4.59
2023-02-16T07:36:34.253Z,5.21
2023-02-16T07:39:05.421Z,5.40
2023-02-16T07:41:34.350Z,5.58
2023-02-16T07:44:09.915Z,5.18
2023-02-16T07:46:38.899Z,5.71
2023-02-16T07:49:07.789Z,6.19
2023-02-16T07:51:36.664Z,6.74
2023-02-16T07:54:07.204Z,7.05
2023-02-16T07:56:36.934Z,6.47
2023-02-16T07:59:05.868Z,7.01
2023-02-16T08:01:35.406Z,8.28
2023-02-16T08:04:04.174Z,8.18
2023-02-16T08:06:32.968Z,8.50
2023-02-16T08:09:02.175Z,8.49
2023-02-16T08:11:32.609Z,6.82
2023-02-16T08:14:01.671Z,7.85
2023-02-16T08:16:31.192Z,7.35
2023-02-16T08:19:02.087Z,6.58
2023-02-16T08:21:33.012Z,7.40
2023-02-16T08:24:03.811Z,8.55
2023-02-16T08:26:38.019Z,7.45
2023-02-16T08:29:10.065Z,7.38
2023-02-16T08:31:39.292Z,7.73
2023-02-16T08:34:08.865Z,8.58
2023-02-16T08:36:40.143Z,9.12
2023-02-16T08:39:12.902Z,10.05
2023-02-16T08:41:44.206Z,9.68
2023-02-16T08:44:13.705Z,10.36
2023-02-16T08:46:47.661Z,10.23
2023-02-16T08:49:18.776Z,10.26
2023-02-16T08:51:49.359Z,11.23
2023-02-16T08:54:20.410Z,11.90
2023-02-16T08:56:50.872Z,11.56
2023-02-16T08:59:21.598Z,11.94
2023-02-16T09:01:50.906Z,12.00
2023-02-16T09:04:20.348Z,12.03
2023-02-16T09:06:50.338Z,12.51
2023-02-16T09:09:19.603Z,12.53
2023-02-16T09:11:50.516Z,13.14
2023-02-16T09:14:21.590Z,11.86
2023-02-16T09:16:51.064Z,10.93
2023-02-16T09:19:21.847Z,9.76
2023-02-16T09:21:52.167Z,11.81
2023-02-16T09:24:21.996Z,13.03
2023-02-16T09:27:45.794Z,12.67
2023-02-16T09:30:39.345Z,13.27
2023-02-16T09:33:08.465Z,13.82
2023-02-16T09:35:40.020Z,14.02
2023-02-16T09:38:08.885Z,13.10
2023-02-16T09:40:38.612Z,11.81
2023-02-16T09:43:20.680Z,14.12
2023-02-16T09:45:54.982Z,16.05
2023-02-16T09:48:30.555Z,14.31
2023-02-16T09:51:02.067Z,14.24
2023-02-16T09:53:37.238Z,11.67
2023-02-16T09:56:09.181Z,11.20
2023-02-16T09:58:43.633Z,13.80
2023-02-16T10:01:23.270Z,15.70
2023-02-16T10:04:01.353Z,12.78
2023-02-16T10:06:44.177Z,12.41
2023-02-16T10:09:16.484Z,13.53
2023-02-16T10:11:50.551Z,13.44
2023-02-16T10:14:30.215Z,14.98
2023-02-16T10:17:07.769Z,14.71
2023-02-16T10:19:40.601Z,14.02
2023-02-16T10:22:17.334Z,13.52
2023-02-16T10:24:53.915Z,13.27
2023-02-16T10:27:23.309Z,13.56
2023-02-16T10:29:52.302Z,14.25
2023-02-16T10:32:29.327Z,13.50
2023-02-16T10:35:10.972Z,12.96
2023-02-16T10:37:57.410Z,14.06
2023-02-16T10:40:35.686Z,13.11
2023-02-16T10:43:14.144Z,14.50
2023-02-16T10:45:52.374Z,14.50
2023-02-16T10:48:23.972Z,15.80
2023-02-16T10:50:59.055Z,16.60
2023-02-16T10:53:37.500Z,17.61
2023-02-16T10:56:33.111Z,17.05
2023-02-16T10:59:07.292Z,15.46
2023-02-16T11:01:39.634Z,13.94
2023-02-16T11:04:11.064Z,14.48
2023-02-16T11:06:39.921Z,13.11
2023-02-16T11:09:08.788Z,15.28
2023-02-16T11:11:39.766Z,16.60
2023-02-16T11:14:19.785Z,16.76
2023-02-16T11:16:49.102Z,18.43
2023-02-16T11:19:23.289Z,17.73
2023-02-16T11:21:55.806Z,15.62
2023-02-16T11:24:27.039Z,14.89
2023-02-16T11:27:04.607Z,14.46
2023-02-16T11:29:33.946Z,15.95
2023-02-16T11:32:08.732Z,16.26
2023-02-16T11:34:42.935Z,16.59
2023-02-16T11:37:17.860Z,14.82
2023-02-16T11:39:52.668Z,15.79
2023-02-16T11:42:29.395Z,15.80
2023-02-16T11:45:00.390Z,16.19
2023-02-16T11:47:32.663Z,16.37
2023-02-16T11:50:21.853Z,14.79
2023-02-16T11:52:52.348Z,14.88
2023-02-16T11:55:26.996Z,14.77
2023-02-16T11:57:57.115Z,15.55
2023-02-16T12:00:27.684Z,15.93
2023-02-16T12:03:17.058Z,16.12
2023-02-16T12:06:05.278Z,16.70
2023-02-16T12:08:48.477Z,16.82
2023-02-16T12:11:29.338Z,16.82
2023-02-16T12:14:22.539Z,16.54
2023-02-16T12:16:59.615Z,16.56
2023-02-16T12:19:40.810Z,17.14
2023-02-16T12:22:27.458Z,16.39
2023-02-16T12:25:06.050Z,15.04
2023-02-16T12:27:41.528Z,14.89
2023-02-16T12:30:26.917Z,15.27
2023-02-16T12:33:09.124Z,15.76
2023-02-16T12:35:57.686Z,16.19
2023-02-16T12:38:45.280Z,15.98
2023-02-16T12:41:27.418Z,14.98
2023-02-16T12:44:02.057Z,16.68
2023-02-16T12:46:39.580Z,16.41
2023-02-16T12:49:17.697Z,16.23
2023-02-16T12:51:51.899Z,17.57
2023-02-16T12:54:27.082Z,16.82
2023-02-16T12:56:58.778Z,17.29
2023-02-16T12:59:36.776Z,17.08
2023-02-16T13:02:13.261Z,17.10
2023-02-16T13:04:48.168Z,17.80
2023-02-16T13:07:26.355Z,18.18
2023-02-16T13:10:03.252Z,17.99
2023-02-16T13:12:35.819Z,17.40
2023-02-16T13:15:13.238Z,17.39
2023-02-16T13:17:47.313Z,15.87
2023-02-16T13:20:17.869Z,16.20
2023-02-16T13:23:34.332Z,15.66
2023-02-16T13:26:27.369Z,16.38
2023-02-16T13:29:30.664Z,17.42
2023-02-16T13:32:14.915Z,17.86
2023-02-16T13:35:04.293Z,17.44
2023-02-16T13:37:49.225Z,17.71
2023-02-16T13:40:42.807Z,16.34
2023-02-16T13:43:27.720Z,16.24
2023-02-16T13:45:58.155Z,15.99
2023-02-16T13:48:29.847Z,15.57
2023-02-16T13:51:02.362Z,16.62
2023-02-16T13:53:37.772Z,16.79
2023-02-16T13:56:17.778Z,15.88
2023-02-16T13:58:48.169Z,17.10
2023-02-16T14:01:39.148Z,17.49
2023-02-16T14:04:14.651Z,18.21
2023-02-16T14:06:43.884Z,18.70
2023-02-16T14:09:50.802Z,18.89
2023-02-16T14:12:24.201Z,19.41
2023-02-16T14:15:20.526Z,17.85
2023-02-16T14:17:49.386Z,18.50
2023-02-16T14:20:30.844Z,17.93
2023-02-16T14:23:01.175Z,17.62
2023-02-16T14:25:41.320Z,17.51
2023-02-16T14:28:49.335Z,17.04
2023-02-16T14:31:23.764Z,16.79
2023-02-16T14:34:03.771Z,16.19
2023-02-16T14:36:33.338Z,16.50
2023-02-16T14:39:02.551Z,17.11
2023-02-16T14:41:34.324Z,17.62
2023-02-16T14:44:27.938Z,16.82
2023-02-16T14:47:12.474Z,17.53
2023-02-16T14:50:12.672Z,17.46
2023-02-16T14:53:18.113Z,16.29
2023-02-16T14:56:37.889Z,17.00
2023-02-16T14:59:16.246Z,16.71
2023-02-16T15:01:47.088Z,16.73
2023-02-16T15:04:28.326Z,16.53
2023-02-16T15:06:58.423Z,16.28
2023-02-16T15:09:31.248Z,15.99
2023-02-16T15:12:21.746Z,15.39
2023-02-16T15:14:53.531Z,15.65
2023-02-16T15:17:32.915Z,16.32
2023-02-16T15:20:11.393Z,16.32
2023-02-16T15:22:44.648Z,15.79
2023-02-16T15:25:26.979Z,15.27
2023-02-16T15:28:01.911Z,15.92
2023-02-16T15:30:32.674Z,16.07
2023-02-16T15:33:04.122Z,16.31
2023-02-16T15:35:37.967Z,15.83
2023-02-16T15:38:21.087Z,15.74
2023-02-16T15:40:53.998Z,15.39
2023-02-16T15:43:31.969Z,15.14
2023-02-16T15:46:02.208Z,14.76
2023-02-16T15:48:32.622Z,14.28
2023-02-16T15:51:12.873Z,14.03
2023-02-16T15:53:51.514Z,13.92
2023-02-16T15:56:34.843Z,13.69
2023-02-16T15:59:07.449Z,13.45
2023-02-16T16:01:36.804Z,13.38
2023-02-16T16:04:14.965Z,13.21
2023-02-16T16:06:46.748Z,13.29
2023-02-16T16:09:25.501Z,13.15
2023-02-16T16:11:56.729Z,13.00
2023-02-16T16:14:26.645Z,12.79
2023-02-16T16:16:56.171Z,12.64
2023-02-16T16:19:32.222Z,12.48
2023-02-16T16:22:04.422Z,12.52
2023-02-16T16:24:38.899Z,11.91
2023-02-16T16:27:09.955Z,11.47
2023-02-16T16:29:42.093Z,11.13
2023-02-16T16:32:20.705Z,11.40
2023-02-16T16:34:49.934Z,11.59
2023-02-16T16:37:29.980Z,11.48
2023-02-16T16:40:04.322Z,11.19
2023-02-16T16:42:34.755Z,10.59
2023-02-16T16:45:07.691Z,10.43
2023-02-16T16:47:39.974Z,11.00
2023-02-16T16:50:39.436Z,10.94
2023-02-16T16:53:41.863Z,10.91
2023-02-16T16:56:13.311Z,10.30
2023-02-16T16:58:42.551Z,10.06
2023-02-16T17:01:13.549Z,10.68
2023-02-16T17:03:42.554Z,10.84
2023-02-16T17:06:11.907Z,10.23
2023-02-16T17:08:42.589Z,10.12
2023-02-16T17:11:17.203Z,9.96
2023-02-16T17:13:46.166Z,9.81
2023-02-16T17:16:20.353Z,9.22
2023-02-16T17:18:49.177Z,9.36
2023-02-16T17:21:18.623Z,9.00
2023-02-16T17:23:53.026Z,9.35
2023-02-16T17:26:22.801Z,8.98
2023-02-16T17:28:52.142Z,9.37
2023-02-16T17:31:21.034Z,9.27
2023-02-16T17:33:49.887Z,8.89
2023-02-16T17:36:19.989Z,9.04
2023-02-16T17:38:50.583Z,8.95
2023-02-16T17:41:22.757Z,9.44
2023-02-16T17:43:52.220Z,9.47
2023-02-16T17:46:22.733Z,9.43
2023-02-16T17:48:53.900Z,8.43
2023-02-16T17:51:25.157Z,8.74
2023-02-16T17:53:55.905Z,8.63
2023-02-16T17:56:25.941Z,8.88
2023-02-16T17:58:54.814Z,8.40
2023-02-16T18:01:23.825Z,8.49
2023-02-16T18:03:53.816Z,8.59
2023-02-16T18:06:28.152Z,8.66
2023-02-16T18:08:59.360Z,8.18
2023-02-16T18:11:28.232Z,7.73
2023-02-16T18:13:57.077Z,7.78
2023-02-16T18:16:28.012Z,7.48
2023-02-16T18:18:58.146Z,7.58
2023-02-16T18:21:26.987Z,7.57
2023-02-16T18:23:55.807Z,7.67
2023-02-16T18:26:28.496Z,8.02
2023-02-16T18:28:57.400Z,8.52
2023-02-16T18:31:26.296Z,8.40
2023-02-16T18:33:55.238Z,8.25
2023-02-16T18:36:24.107Z,7.94
2023-02-16T18:38:52.909Z,7.95
2023-02-16T18:41:21.758Z,8.09
2023-02-16T18:43:51.961Z,7.55
2023-02-16T18:46:20.836Z,7.22
2023-02-16T18:48:50.019Z,7.49
2023-02-16T18:51:18.903Z,7.77
2023-02-16T18:53:47.760Z,7.16
2023-02-16T18:56:16.808Z,7.19
2023-02-16T18:58:45.577Z,7.11
2023-02-16T19:01:16.857Z,7.24
2023-02-16T19:03:46.143Z,7.04
2023-02-16T19:06:15.038Z,7.15
2023-02-16T19:08:43.985Z,7.17
2023-02-16T19:11:12.762Z,7.24
2023-02-16T19:13:41.835Z,7.20
2023-02-16T19:16:10.759Z,6.78
2023-02-16T19:18:41.736Z,6.97
2023-02-16T19:21:12.546Z,7.09
2023-02-16T19:23:41.934Z,6.81
2023-02-16T19:26:12.673Z,6.94
2023-02-16T19:28:42.096Z,6.94
2023-02-16T19:31:18.139Z,7.05
2023-02-16T19:33:48.536Z,7.27
2023-02-16T19:36:17.932Z,7.17
2023-02-16T19:38:47.933Z,6.58
2023-02-16T19:41:18.592Z,6.33
2023-02-16T19:43:48.052Z,6.83
2023-02-16T19:46:17.267Z,6.66
2023-02-16T19:48:47.159Z,7.20
2023-02-16T19:51:17.881Z,6.85
2023-02-16T19:53:46.839Z,6.74
2023-02-16T19:56:17.620Z,6.65
2023-02-16T19:58:46.657Z,6.90
2023-02-16T20:01:17.976Z,7.31
2023-02-16T20:03:47.250Z,7.37
2023-02-16T20:06:20.077Z,7.66
2023-02-16T20:08:51.751Z,7.61
2023-02-16T20:11:23.114Z,6.82
2023-02-16T20:13:52.970Z,6.76
2023-02-16T20:16:22.532Z,6.65
2023-02-16T20:18:52.121Z,6.54
2023-02-16T20:21:24.624Z,6.33
2023-02-16T20:23:56.256Z,6.68
2023-02-16T20:26:27.892Z,7.21
2023-02-16T20:28:57.464Z,6.69
2023-02-16T20:31:28.947Z,6.69
2023-02-16T20:33:58.407Z,6.05
2023-02-16T20:36:28.732Z,5.34
2023-02-16T20:38:57.521Z,5.39
2023-02-16T20:41:26.585Z,5.76
2023-02-16T20:43:55.454Z,5.52
2023-02-16T20:46:24.979Z,5.59
2023-02-16T20:48:54.048Z,5.17
2023-02-16T20:51:22.964Z,5.18
2023-02-16T20:53:53.172Z,5.31
2023-02-16T20:56:23.461Z,5.39
2023-02-16T20:58:54.205Z,5.29
2023-02-16T21:01:26.468Z,5.27
2023-02-16T21:03:56.806Z,5.15
2023-02-16T21:06:25.797Z,5.22
2023-02-16T21:08:56.466Z,5.16
2023-02-16T21:11:26.214Z,5.37
2023-02-16T21:13:55.082Z,5.44
2023-02-16T21:16:23.947Z,5.56
2023-02-16T21:18:52.861Z,5.48
2023-02-16T21:21:22.343Z,5.46
2023-02-16T21:23:53.670Z,5.39
2023-02-16T21:26:26.540Z,5.41
2023-02-16T21:28:55.484Z,5.45
2023-02-16T21:31:26.821Z,5.22
2023-02-16T21:33:56.008Z,5.28
2023-02-16T21:36:27.387Z,5.16
2023-02-16T21:38:56.573Z,5.12
2023-02-16T21:41:29.311Z,4.38
2023-02-16T21:44:02.091Z,4.45
2023-02-16T21:46:33.289Z,4.62
2023-02-16T21:49:01.264Z,4.65
2023-02-16T21:51:33.760Z,4.74
2023-02-16T21:54:03.189Z,4.64
2023-02-16T21:56:35.588Z,4.63
2023-02-16T21:59:05.509Z,4.47
2023-02-16T22:01:37.082Z,4.67
2023-02-16T22:04:06.636Z,4.98
2023-02-16T22:06:38.698Z,4.96
2023-02-16T22:09:09.982Z,4.80
2023-02-16T22:11:40.316Z,5.09
2023-02-16T22:14:09.604Z,4.97
2023-02-16T22:16:40.023Z,4.68
2023-02-16T22:19:12.234Z,4.43
2023-02-16T22:21:43.197Z,4.28
2023-02-16T22:24:14.510Z,4.48
2023-02-16T22:26:45.230Z,4.67
2023-02-16T22:29:14.387Z,4.51
2023-02-16T22:31:46.344Z,4.35
2023-02-16T22:34:17.122Z,4.33
2023-02-16T22:36:46.128Z,4.20
2023-02-16T22:39:16.704Z,4.01
2023-02-16T22:41:46.930Z,3.87
2023-02-16T22:44:16.050Z,3.98
2023-02-16T22:46:45.000Z,4.16
2023-02-16T22:49:13.806Z,4.14
2023-02-16T22:51:42.896Z,3.69
2023-02-16T22:54:14.374Z,3.78
2023-02-16T22:56:43.500Z,3.43
2023-02-16T22:59:14.062Z,3.63
2023-02-16T23:01:42.995Z,3.54
2023-02-16T23:04:14.722Z,3.56
2023-02-16T23:06:45.080Z,3.35
2023-02-16T23:09:16.664Z,3.22
2023-02-16T23:11:45.696Z,3.18
2023-02-16T23:14:19.395Z,3.34
2023-02-16T23:16:49.894Z,3.48
2023-02-16T23:19:21.013Z,3.51
2023-02-16T23:21:50.839Z,3.06
2023-02-16T23:24:21.517Z,3.24
2023-02-16T23:26:50.810Z,3.15
2023-02-16T23:29:21.203Z,3.19
2023-02-16T23:31:50.497Z,3.04
2023-02-16T23:34:20.401Z,3.48
2023-02-16T23:36:49.497Z,3.26
2023-02-16T23:39:19.766Z,3.43
2023-02-16T23:41:48.568Z,3.45
2023-02-16T23:44:17.587Z,3.18
2023-02-16T23:46:47.819Z,3.19
2023-02-16T23:49:16.696Z,2.75
2023-02-16T23:51:45.503Z,2.71
2023-02-16T23:54:14.278Z,2.68
2023-02-16T23:56:43.083Z,2.72
2023-02-16T23:59:11.884Z,2.83
